createdAt,value
2023-05-25T00:00:23.205Z,40.10
2023-05-25T00:01:26.308Z,40.30
2023-05-25T00:02:28.778Z,40.20
2023-05-25T00:03:32.356Z,40.10
2023-05-25T00:04:36.851Z,40.20
2023-05-25T00:05:39.660Z,40.30
2023-05-25T00:06:45.498Z,40.30
2023-05-25T00:07:49.407Z,40.40
2023-05-25T00:08:55.345Z,40.30
2023-05-25T00:09:59.042Z,40.30
2023-05-25T00:11:01.463Z,40.20
2023-05-25T00:12:05.064Z,40.40
2023-05-25T00:13:07.450Z,40.30
2023-05-25T00:14:09.909Z,40.20
2023-05-25T00:15:12.327Z,40.20
2023-05-25T00:16:14.736Z,40.20
2023-05-25T00:17:18.779Z,40.30
2023-05-25T00:18:21.938Z,40.30
2023-05-25T00:19:25.005Z,40.20
2023-05-25T00:20:28.497Z,40.30
2023-05-25T00:21:30.938Z,40.30
2023-05-25T00:22:36.894Z,40.30
2023-05-25T00:23:39.977Z,40.40
2023-05-25T00:24:42.498Z,40.20
2023-05-25T00:25:45.139Z,40.20
2023-05-25T00:26:48.022Z,40.20
2023-05-25T00:27:50.471Z,40.80
2023-05-25T00:28:52.848Z,40.30
2023-05-25T00:29:55.447Z,40.10
2023-05-25T00:30:58.041Z,40.00
2023-05-25T00:32:00.794Z,40.20
2023-05-25T00:33:03.980Z,40.30
2023-05-25T00:34:06.750Z,40.10
2023-05-25T00:35:09.555Z,40.00
2023-05-25T00:36:12.852Z,40.30
2023-05-25T00:37:15.948Z,40.10
2023-05-25T00:38:18.883Z,39.90
2023-05-25T00:39:21.874Z,40.20
2023-05-25T00:40:24.314Z,40.80
2023-05-25T00:41:28.481Z,40.00
2023-05-25T00:42:33.356Z,39.90
2023-05-25T00:43:35.934Z,40.00
2023-05-25T00:44:41.968Z,40.00
2023-05-25T00:45:44.940Z,39.90
2023-05-25T00:46:50.405Z,39.90
2023-05-25T00:47:53.870Z,39.80
2023-05-25T00:48:56.287Z,39.80
2023-05-25T00:49:58.725Z,40.00
2023-05-25T00:51:01.561Z,39.90
2023-05-25T00:52:05.539Z,40.10
2023-05-25T00:53:09.490Z,39.90
2023-05-25T00:54:14.670Z,40.00
2023-05-25T00:55:19.837Z,39.80
2023-05-25T00:56:30.182Z,40.10
2023-05-25T00:57:37.867Z,40.10
2023-05-25T00:58:42.685Z,40.20
2023-05-25T00:59:51.489Z,40.10
2023-05-25T01:00:57.765Z,40.10
2023-05-25T01:02:04.746Z,40.00
2023-05-25T01:03:17.611Z,40.10
2023-05-25T01:04:23.605Z,40.30
2023-05-25T01:05:30.480Z,40.30
2023-05-25T01:06:33.980Z,40.10
2023-05-25T01:07:37.058Z,40.00
2023-05-25T01:08:42.458Z,40.00
2023-05-25T01:09:46.530Z,40.00
2023-05-25T01:10:51.497Z,40.20
2023-05-25T01:11:55.742Z,40.10
2023-05-25T01:12:59.780Z,39.90
2023-05-25T01:14:03.159Z,40.00
2023-05-25T01:15:06.446Z,39.80
2023-05-25T01:16:10.070Z,39.90
2023-05-25T01:17:12.711Z,40.10
2023-05-25T01:18:18.218Z,40.20
2023-05-25T01:19:21.926Z,40.20
2023-05-25T01:20:24.426Z,40.20
2023-05-25T01:21:42.016Z,40.20
2023-05-25T01:22:54.085Z,40.30
2023-05-25T01:24:05.188Z,40.10
2023-05-25T01:25:23.050Z,40.10
2023-05-25T01:26:28.894Z,40.20
2023-05-25T01:27:43.632Z,40.30
2023-05-25T01:28:52.066Z,40.30
2023-05-25T01:29:55.928Z,40.40
2023-05-25T01:30:58.936Z,40.50
2023-05-25T01:32:03.496Z,40.40
2023-05-25T01:33:07.325Z,40.30
2023-05-25T01:34:12.192Z,40.40
2023-05-25T01:35:16.842Z,40.20
2023-05-25T01:36:20.070Z,40.30
2023-05-25T01:37:24.538Z,40.30
2023-05-25T01:38:26.996Z,40.30
2023-05-25T01:39:29.325Z,40.30
2023-05-25T01:40:31.796Z,40.40
2023-05-25T01:41:36.498Z,40.50
2023-05-25T01:42:39.826Z,40.50
2023-05-25T01:43:42.526Z,40.50
2023-05-25T01:44:46.221Z,40.50
2023-05-25T01:45:48.868Z,40.50
2023-05-25T01:46:58.776Z,40.50
2023-05-25T01:48:23.710Z,40.50
2023-05-25T01:49:58.820Z,40.40
2023-05-25T01:51:07.034Z,40.50
2023-05-25T01:52:15.106Z,40.40
2023-05-25T01:53:54.150Z,40.30
2023-05-25T01:55:12.969Z,40.40
2023-05-25T01:56:16.739Z,40.40
2023-05-25T01:57:20.649Z,40.30
2023-05-25T01:58:25.988Z,40.30
2023-05-25T01:59:29.419Z,40.30
2023-05-25T02:00:33.340Z,40.30
2023-05-25T02:01:37.180Z,40.40
2023-05-25T02:02:43.229Z,40.50
2023-05-25T02:03:49.111Z,40.40
2023-05-25T02:04:54.738Z,40.50
2023-05-25T02:05:58.835Z,40.40
2023-05-25T02:07:03.492Z,40.30
2023-05-25T02:08:06.139Z,40.30
2023-05-25T02:09:08.838Z,39.70
2023-05-25T02:10:11.419Z,40.10
2023-05-25T02:11:15.012Z,40.10
2023-05-25T02:12:17.570Z,40.30
2023-05-25T02:13:20.726Z,39.20
2023-05-25T02:14:23.220Z,39.10
2023-05-25T02:15:25.701Z,39.10
2023-05-25T02:16:29.858Z,39.10
2023-05-25T02:17:37.129Z,39.10
2023-05-25T02:18:44.549Z,39.70
2023-05-25T02:19:49.352Z,39.90
2023-05-25T02:20:51.803Z,39.70
2023-05-25T02:21:54.660Z,39.70
2023-05-25T02:22:58.680Z,39.70
2023-05-25T02:24:01.642Z,39.70
2023-05-25T02:25:04.361Z,39.60
2023-05-25T02:26:06.784Z,39.60
2023-05-25T02:27:12.717Z,39.60
2023-05-25T02:28:15.817Z,39.60
2023-05-25T02:29:18.941Z,39.60
2023-05-25T02:30:21.863Z,39.60
2023-05-25T02:31:24.294Z,39.60
2023-05-25T02:32:29.429Z,39.30
2023-05-25T02:33:32.025Z,39.30
2023-05-25T02:34:34.453Z,39.40
2023-05-25T02:35:36.970Z,39.30
2023-05-25T02:36:39.755Z,39.50
2023-05-25T02:37:42.345Z,39.40
2023-05-25T02:38:45.487Z,39.60
2023-05-25T02:39:48.130Z,40.10
2023-05-25T02:40:50.562Z,40.00
2023-05-25T02:41:55.353Z,40.20
2023-05-25T02:42:58.298Z,40.00
2023-05-25T02:44:00.957Z,40.00
2023-05-25T02:45:04.044Z,40.00
2023-05-25T02:46:06.750Z,40.00
2023-05-25T02:47:09.214Z,40.30
2023-05-25T02:48:12.210Z,40.30
2023-05-25T02:49:14.706Z,40.30
2023-05-25T02:50:17.682Z,40.30
2023-05-25T02:51:22.791Z,40.40
2023-05-25T02:52:25.672Z,40.40
2023-05-25T02:53:28.609Z,40.40
2023-05-25T02:54:31.130Z,40.70
2023-05-25T02:55:34.010Z,40.50
2023-05-25T02:56:36.882Z,40.60
2023-05-25T02:57:39.851Z,40.60
2023-05-25T02:58:44.403Z,40.50
2023-05-25T02:59:49.728Z,40.60
2023-05-25T03:00:52.367Z,40.50
2023-05-25T03:01:55.031Z,40.50
2023-05-25T03:02:57.536Z,40.50
2023-05-25T03:04:00.140Z,40.30
2023-05-25T03:05:05.437Z,40.30
2023-05-25T03:06:09.345Z,40.40
2023-05-25T03:07:13.142Z,40.40
2023-05-25T03:08:15.596Z,40.40
2023-05-25T03:09:18.058Z,40.50
2023-05-25T03:10:22.889Z,41.20
2023-05-25T03:11:25.238Z,40.90
2023-05-25T03:12:27.699Z,40.90
2023-05-25T03:13:30.140Z,40.80
2023-05-25T03:14:32.961Z,40.90
2023-05-25T03:15:40.427Z,40.80
2023-05-25T03:16:42.990Z,41.20
2023-05-25T03:17:45.454Z,41.30
2023-05-25T03:18:48.132Z,41.20
2023-05-25T03:19:50.845Z,41.20
2023-05-25T03:20:53.578Z,41.00
2023-05-25T03:21:56.011Z,40.80
2023-05-25T03:23:01.505Z,40.70
2023-05-25T03:24:04.895Z,40.70
2023-05-25T03:25:08.099Z,40.70
2023-05-25T03:26:10.925Z,40.70
2023-05-25T03:27:13.744Z,40.60
2023-05-25T03:28:16.258Z,40.70
2023-05-25T03:29:19.931Z,40.70
2023-05-25T03:30:23.265Z,40.70
2023-05-25T03:31:26.511Z,40.40
2023-05-25T03:32:28.886Z,40.30
2023-05-25T03:33:31.495Z,40.40
2023-05-25T03:34:35.333Z,40.50
2023-05-25T03:35:38.919Z,40.50
2023-05-25T03:36:45.960Z,40.50
2023-05-25T03:37:49.429Z,40.60
2023-05-25T03:38:54.491Z,40.30
2023-05-25T03:39:57.232Z,40.40
2023-05-25T03:40:59.860Z,40.30
2023-05-25T03:42:03.455Z,40.10
2023-05-25T03:43:06.659Z,40.10
2023-05-25T03:44:10.779Z,40.10
2023-05-25T03:45:13.192Z,40.10
2023-05-25T03:46:16.725Z,40.20
2023-05-25T03:47:19.878Z,40.50
2023-05-25T03:48:22.479Z,40.70
2023-05-25T03:49:24.818Z,40.80
2023-05-25T03:50:27.152Z,40.80
2023-05-25T03:51:29.625Z,40.70
2023-05-25T03:52:31.973Z,40.60
2023-05-25T03:53:34.443Z,40.70
2023-05-25T03:54:36.882Z,40.60
2023-05-25T03:55:39.734Z,40.80
2023-05-25T03:56:42.157Z,40.70
2023-05-25T03:57:44.508Z,40.80
2023-05-25T03:58:46.921Z,40.70
2023-05-25T03:59:49.342Z,40.90
2023-05-25T04:00:52.591Z,41.10
2023-05-25T04:01:55.420Z,40.80
2023-05-25T04:02:58.811Z,40.80
2023-05-25T04:04:01.517Z,40.90
2023-05-25T04:05:04.208Z,40.90
2023-05-25T04:06:07.491Z,40.90
2023-05-25T04:07:09.880Z,40.90
2023-05-25T04:08:19.622Z,40.70
2023-05-25T04:09:22.379Z,40.90
2023-05-25T04:10:25.291Z,40.90
2023-05-25T04:11:29.135Z,40.80
2023-05-25T04:12:32.377Z,40.90
2023-05-25T04:13:36.362Z,41.00
2023-05-25T04:14:42.358Z,40.90
2023-05-25T04:15:44.843Z,41.00
2023-05-25T04:16:52.069Z,40.90
2023-05-25T04:17:55.764Z,40.80
2023-05-25T04:18:58.189Z,40.80
2023-05-25T04:20:00.674Z,40.70
2023-05-25T04:21:03.167Z,40.80
2023-05-25T04:22:06.140Z,40.80
2023-05-25T04:23:08.488Z,40.70
2023-05-25T04:24:12.192Z,40.80
2023-05-25T04:25:16.999Z,41.80
2023-05-25T04:26:20.391Z,41.10
2023-05-25T04:27:26.340Z,40.90
2023-05-25T04:28:28.864Z,40.50
2023-05-25T04:29:45.164Z,40.40
2023-05-25T04:31:13.674Z,41.00
2023-05-25T04:32:25.255Z,40.50
2023-05-25T04:33:31.096Z,40.70
2023-05-25T04:34:36.672Z,41.20
2023-05-25T04:35:45.430Z,41.80
2023-05-25T04:36:48.688Z,42.10
2023-05-25T04:37:52.107Z,42.20
2023-05-25T04:38:55.348Z,42.30
2023-05-25T04:39:59.728Z,42.20
2023-05-25T04:41:02.310Z,42.10
2023-05-25T04:42:07.142Z,42.10
2023-05-25T04:43:11.318Z,42.20
2023-05-25T04:44:13.980Z,42.20
2023-05-25T04:45:25.999Z,42.30
2023-05-25T04:46:29.796Z,42.20
2023-05-25T04:47:32.416Z,42.20
2023-05-25T04:48:38.446Z,42.20
2023-05-25T04:49:41.015Z,42.30
2023-05-25T04:50:43.981Z,42.00
2023-05-25T04:51:47.421Z,42.30
2023-05-25T04:52:50.334Z,42.40
2023-05-25T04:53:52.756Z,42.20
2023-05-25T04:54:55.343Z,42.20
2023-05-25T04:55:58.798Z,42.00
2023-05-25T04:57:03.554Z,42.20
2023-05-25T04:58:07.626Z,41.80
2023-05-25T04:59:11.047Z,42.10
2023-05-25T05:00:16.126Z,42.00
2023-05-25T05:01:21.272Z,42.00
2023-05-25T05:02:24.737Z,41.40
2023-05-25T05:03:27.167Z,41.40
2023-05-25T05:04:30.439Z,41.80
2023-05-25T05:05:33.263Z,41.70
2023-05-25T05:06:37.567Z,42.20
2023-05-25T05:07:40.253Z,42.60
2023-05-25T05:08:43.431Z,42.40
2023-05-25T05:09:45.982Z,42.50
2023-05-25T05:10:49.546Z,42.60
2023-05-25T05:11:52.404Z,42.80
2023-05-25T05:12:54.952Z,42.80
2023-05-25T05:13:59.285Z,42.80
2023-05-25T05:15:04.067Z,42.90
2023-05-25T05:16:08.201Z,42.90
2023-05-25T05:17:10.563Z,42.90
2023-05-25T05:18:14.084Z,42.70
2023-05-25T05:19:16.863Z,42.80
2023-05-25T05:20:19.415Z,42.50
2023-05-25T05:21:24.770Z,42.50
2023-05-25T05:22:27.433Z,42.60
2023-05-25T05:23:30.033Z,42.50
2023-05-25T05:24:32.407Z,42.90
2023-05-25T05:25:35.031Z,42.70
2023-05-25T05:26:55.488Z,42.50
2023-05-25T05:28:03.717Z,42.70
2023-05-25T05:29:11.388Z,42.80
2023-05-25T05:30:14.187Z,42.80
2023-05-25T05:31:17.434Z,42.90
2023-05-25T05:32:19.959Z,43.00
2023-05-25T05:33:24.094Z,42.90
2023-05-25T05:34:26.810Z,43.00
2023-05-25T05:35:29.221Z,42.90
2023-05-25T05:36:56.049Z,42.90
2023-05-25T05:37:59.500Z,42.50
2023-05-25T05:39:03.465Z,42.50
2023-05-25T05:40:06.798Z,42.90
2023-05-25T05:41:13.962Z,43.00
2023-05-25T05:42:23.374Z,42.80
2023-05-25T05:43:25.823Z,42.70
2023-05-25T05:44:29.468Z,42.90
2023-05-25T05:45:33.042Z,43.10
2023-05-25T05:46:36.240Z,43.10
2023-05-25T05:47:39.360Z,42.90
2023-05-25T05:48:42.891Z,42.90
2023-05-25T05:49:45.855Z,43.10
2023-05-25T05:50:48.420Z,43.20
2023-05-25T05:51:51.095Z,42.90
2023-05-25T05:52:54.296Z,43.20
2023-05-25T05:53:56.730Z,42.80
2023-05-25T05:54:59.516Z,42.70
2023-05-25T05:56:03.157Z,42.60
2023-05-25T05:57:06.432Z,42.70
2023-05-25T05:58:08.815Z,42.70
2023-05-25T05:59:11.820Z,42.80
2023-05-25T06:00:17.088Z,43.00
2023-05-25T06:01:19.575Z,42.80
2023-05-25T06:02:22.191Z,42.60
2023-05-25T06:03:24.755Z,42.70
2023-05-25T06:04:28.909Z,42.70
2023-05-25T06:05:32.403Z,42.80
2023-05-25T06:06:37.608Z,42.50
2023-05-25T06:07:40.597Z,42.60
2023-05-25T06:08:43.530Z,42.70
2023-05-25T06:09:46.256Z,43.00
2023-05-25T06:10:48.984Z,43.00
2023-05-25T06:11:51.503Z,42.90
2023-05-25T06:12:54.348Z,43.30
2023-05-25T06:13:57.545Z,43.30
2023-05-25T06:15:01.061Z,43.10
2023-05-25T06:16:06.400Z,43.20
2023-05-25T06:17:09.269Z,43.40
2023-05-25T06:18:11.693Z,43.10
2023-05-25T06:19:14.447Z,42.90
2023-05-25T06:20:17.608Z,42.90
2023-05-25T06:21:21.682Z,42.80
2023-05-25T06:22:27.838Z,43.00
2023-05-25T06:23:32.148Z,42.90
2023-05-25T06:24:34.509Z,42.90
2023-05-25T06:25:36.997Z,42.90
2023-05-25T06:26:39.373Z,43.10
2023-05-25T06:27:42.067Z,41.70
2023-05-25T06:28:46.769Z,42.70
2023-05-25T06:29:49.193Z,42.00
2023-05-25T06:30:52.555Z,41.70
2023-05-25T06:31:55.181Z,42.30
2023-05-25T06:32:57.733Z,43.50
2023-05-25T06:34:01.583Z,42.50
2023-05-25T06:35:04.642Z,42.90
2023-05-25T06:36:11.048Z,42.90
2023-05-25T06:37:14.931Z,43.40
2023-05-25T06:38:18.590Z,43.10
2023-05-25T06:39:21.312Z,43.00
2023-05-25T06:40:23.773Z,43.50
2023-05-25T06:41:26.334Z,43.30
2023-05-25T06:42:31.018Z,41.80
2023-05-25T06:43:34.165Z,42.50
2023-05-25T06:44:51.096Z,41.90
2023-05-25T06:45:54.198Z,41.20
2023-05-25T06:46:56.670Z,41.70
2023-05-25T06:48:00.589Z,42.00
2023-05-25T06:49:03.565Z,42.10
2023-05-25T06:50:07.079Z,41.10
2023-05-25T06:51:09.442Z,42.50
2023-05-25T06:52:11.841Z,41.80
2023-05-25T06:53:14.403Z,42.80
2023-05-25T06:54:17.214Z,42.60
2023-05-25T06:55:19.584Z,41.30
2023-05-25T06:56:22.882Z,41.30
2023-05-25T06:57:25.312Z,43.20
2023-05-25T06:58:27.700Z,43.70
2023-05-25T06:59:30.145Z,42.70
2023-05-25T07:00:32.544Z,42.00
2023-05-25T07:01:35.035Z,42.40
2023-05-25T07:02:37.583Z,41.20
2023-05-25T07:03:40.011Z,43.20
2023-05-25T07:04:42.558Z,41.90
2023-05-25T07:05:45.245Z,43.00
2023-05-25T07:06:48.720Z,43.20
2023-05-25T07:07:51.098Z,41.00
2023-05-25T07:08:55.751Z,41.00
2023-05-25T07:09:59.351Z,41.90
2023-05-25T07:11:04.882Z,41.70
2023-05-25T07:12:08.755Z,41.90
2023-05-25T07:13:11.431Z,42.40
2023-05-25T07:14:16.712Z,41.60
2023-05-25T07:15:21.538Z,42.10
2023-05-25T07:16:25.552Z,41.50
2023-05-25T07:17:28.780Z,41.80
2023-05-25T07:18:31.299Z,41.50
2023-05-25T07:19:34.133Z,41.50
2023-05-25T07:20:38.081Z,41.50
2023-05-25T07:21:40.687Z,41.60
2023-05-25T07:22:43.601Z,41.60
2023-05-25T07:23:45.995Z,41.80
2023-05-25T07:24:49.864Z,41.50
2023-05-25T07:25:52.304Z,41.30
2023-05-25T07:26:55.164Z,40.70
2023-05-25T07:27:58.167Z,40.40
2023-05-25T07:29:00.947Z,40.60
2023-05-25T07:30:04.894Z,40.40
2023-05-25T07:31:09.507Z,40.20
2023-05-25T07:32:11.826Z,39.70
2023-05-25T07:33:15.102Z,39.50
2023-05-25T07:34:18.045Z,39.50
2023-05-25T07:35:20.768Z,39.60
2023-05-25T07:36:24.861Z,39.70
2023-05-25T07:37:27.309Z,39.50
2023-05-25T07:38:29.647Z,39.20
2023-05-25T07:39:32.164Z,39.10
2023-05-25T07:40:34.629Z,39.40
2023-05-25T07:41:37.486Z,39.80
2023-05-25T07:42:40.606Z,39.50
2023-05-25T07:43:43.002Z,39.60
2023-05-25T07:44:46.313Z,39.60
2023-05-25T07:45:48.802Z,39.70
2023-05-25T07:46:51.347Z,39.70
2023-05-25T07:47:54.103Z,39.70
2023-05-25T07:48:58.365Z,39.70
2023-05-25T07:50:01.067Z,39.60
2023-05-25T07:51:03.542Z,39.60
2023-05-25T07:52:06.515Z,39.40
2023-05-25T07:53:09.188Z,39.50
2023-05-25T07:54:12.541Z,39.70
2023-05-25T07:55:16.578Z,39.70
2023-05-25T07:56:19.056Z,39.80
2023-05-25T07:57:21.565Z,39.90
2023-05-25T07:58:23.951Z,39.90
2023-05-25T07:59:26.485Z,39.90
2023-05-25T08:00:28.962Z,39.80
2023-05-25T08:01:31.419Z,39.90
2023-05-25T08:02:34.478Z,40.10
2023-05-25T08:03:49.068Z,40.20
2023-05-25T08:04:52.665Z,40.10
2023-05-25T08:05:55.233Z,40.10
2023-05-25T08:06:58.030Z,40.40
2023-05-25T08:08:00.474Z,40.40
2023-05-25T08:09:05.003Z,40.30
2023-05-25T08:10:09.160Z,40.20
2023-05-25T08:11:11.793Z,40.20
2023-05-25T08:12:34.122Z,40.00
2023-05-25T08:13:39.826Z,40.20
2023-05-25T08:14:42.578Z,40.00
2023-05-25T08:15:45.492Z,40.00
2023-05-25T08:16:51.902Z,40.00
2023-05-25T08:17:55.676Z,40.00
2023-05-25T08:19:02.053Z,40.20
2023-05-25T08:20:07.033Z,40.00
2023-05-25T08:21:09.484Z,40.10
2023-05-25T08:22:12.126Z,40.00
2023-05-25T08:23:15.136Z,40.20
2023-05-25T08:24:17.603Z,40.30
2023-05-25T08:25:20.729Z,40.10
2023-05-25T08:27:29.426Z,40.40
2023-05-25T08:28:35.267Z,40.60
2023-05-25T08:29:38.228Z,40.40
2023-05-25T08:30:41.317Z,40.50
2023-05-25T08:31:46.280Z,40.50
2023-05-25T08:32:49.304Z,40.60
2023-05-25T08:33:51.944Z,40.50
2023-05-25T08:34:57.391Z,40.80
2023-05-25T08:36:02.547Z,40.70
2023-05-25T08:37:05.124Z,40.80
2023-05-25T08:38:07.616Z,40.50
2023-05-25T08:39:10.234Z,40.60
2023-05-25T08:40:17.108Z,40.30
2023-05-25T08:41:22.790Z,40.50
2023-05-25T08:42:25.349Z,40.60
2023-05-25T08:43:27.781Z,40.80
2023-05-25T08:44:30.705Z,41.10
2023-05-25T08:45:36.046Z,41.00
2023-05-25T08:46:52.799Z,40.90
2023-05-25T08:47:59.463Z,40.70
2023-05-25T08:49:12.041Z,40.50
2023-05-25T08:50:17.461Z,40.20
2023-05-25T08:51:20.934Z,40.30
2023-05-25T08:52:29.384Z,40.20
2023-05-25T08:53:37.823Z,40.30
2023-05-25T08:54:44.268Z,40.10
2023-05-25T08:55:47.523Z,40.30
2023-05-25T08:56:51.286Z,40.40
2023-05-25T08:57:53.677Z,40.60
2023-05-25T08:59:08.663Z,40.50
2023-05-25T09:00:15.527Z,40.50
2023-05-25T09:01:21.808Z,40.50
2023-05-25T09:02:38.630Z,40.60
2023-05-25T09:03:48.837Z,40.70
2023-05-25T09:04:51.592Z,40.70
2023-05-25T09:05:56.273Z,40.50
2023-05-25T09:07:09.717Z,40.70
2023-05-25T09:08:15.184Z,40.70
2023-05-25T09:09:19.114Z,40.90
2023-05-25T09:10:23.192Z,41.10
2023-05-25T09:11:37.410Z,41.20
2023-05-25T09:12:44.569Z,41.30
2023-05-25T09:13:48.178Z,41.30
2023-05-25T09:14:53.515Z,41.30
2023-05-25T09:15:56.301Z,41.40
2023-05-25T09:17:00.934Z,41.40
2023-05-25T09:18:03.319Z,41.30
2023-05-25T09:19:06.024Z,41.30
2023-05-25T09:20:11.538Z,41.10
2023-05-25T09:21:14.234Z,41.00
2023-05-25T09:22:17.171Z,40.70
2023-05-25T09:23:19.915Z,40.80
2023-05-25T09:24:22.838Z,40.80
2023-05-25T09:25:27.587Z,40.60
2023-05-25T09:26:30.064Z,40.50
2023-05-25T09:27:36.925Z,40.50
2023-05-25T09:28:47.116Z,40.50
2023-05-25T09:30:01.399Z,40.70
2023-05-25T09:31:05.781Z,40.80
2023-05-25T09:32:09.021Z,40.80
2023-05-25T09:33:17.715Z,40.60
2023-05-25T09:34:20.595Z,40.40
2023-05-25T09:35:24.936Z,40.50
2023-05-25T09:36:28.281Z,40.70
2023-05-25T09:37:39.601Z,41.40
2023-05-25T09:38:42.604Z,40.80
2023-05-25T09:39:45.484Z,41.00
2023-05-25T09:40:48.423Z,41.00
2023-05-25T09:41:52.156Z,40.90
2023-05-25T09:42:57.768Z,41.30
2023-05-25T09:44:10.253Z,41.00
2023-05-25T09:45:15.353Z,41.00
2023-05-25T09:46:17.819Z,40.90
2023-05-25T09:47:29.823Z,40.90
2023-05-25T09:48:35.457Z,41.20
2023-05-25T09:49:44.402Z,40.90
2023-05-25T09:50:49.590Z,41.00
2023-05-25T09:51:52.386Z,40.60
2023-05-25T09:53:02.381Z,40.60
2023-05-25T09:54:08.770Z,40.80
2023-05-25T09:55:14.980Z,40.70
2023-05-25T09:56:17.933Z,41.00
2023-05-25T09:57:21.088Z,40.90
2023-05-25T09:58:25.108Z,40.70
2023-05-25T09:59:27.949Z,40.80
2023-05-25T10:00:30.450Z,40.70
2023-05-25T10:01:34.517Z,40.50
2023-05-25T10:02:37.247Z,40.50
2023-05-25T10:04:02.858Z,40.70
2023-05-25T10:05:07.343Z,40.90
2023-05-25T10:06:09.952Z,41.20
2023-05-25T10:07:13.814Z,41.20
2023-05-25T10:08:19.875Z,41.10
2023-05-25T10:09:23.705Z,41.20
2023-05-25T10:10:26.855Z,41.40
2023-05-25T10:11:29.620Z,41.30
2023-05-25T10:12:33.496Z,41.00
2023-05-25T10:13:36.850Z,41.10
2023-05-25T10:14:40.235Z,40.80
2023-05-25T10:15:45.645Z,40.80
2023-05-25T10:16:50.422Z,40.80
2023-05-25T10:17:55.677Z,40.70
2023-05-25T10:19:04.601Z,40.90
2023-05-25T10:20:08.958Z,40.80
2023-05-25T10:21:12.950Z,40.80
2023-05-25T10:22:26.331Z,40.80
2023-05-25T10:23:37.889Z,41.20
2023-05-25T10:24:57.158Z,41.20
2023-05-25T10:26:02.549Z,41.10
2023-05-25T10:27:22.423Z,41.20
2023-05-25T10:28:31.182Z,41.10
2023-05-25T10:29:35.614Z,41.10
2023-05-25T10:30:39.357Z,40.60
2023-05-25T10:31:42.532Z,40.60
2023-05-25T10:32:46.770Z,40.80
2023-05-25T10:33:52.180Z,40.80
2023-05-25T10:34:57.267Z,41.10
2023-05-25T10:36:10.033Z,41.50
2023-05-25T10:37:14.908Z,41.40
2023-05-25T10:38:21.115Z,41.50
2023-05-25T10:39:25.015Z,41.70
2023-05-25T10:40:33.631Z,41.60
2023-05-25T10:41:36.062Z,41.60
2023-05-25T10:42:39.303Z,41.70
2023-05-25T10:43:45.116Z,41.70
2023-05-25T10:44:47.920Z,41.50
2023-05-25T10:45:50.363Z,41.30
2023-05-25T10:46:53.272Z,41.70
2023-05-25T10:47:55.793Z,41.80
2023-05-25T10:49:02.222Z,42.00
2023-05-25T10:50:05.212Z,42.00
2023-05-25T10:51:10.179Z,42.00
2023-05-25T10:52:18.482Z,41.80
2023-05-25T10:53:21.313Z,42.00
2023-05-25T10:54:23.668Z,41.90
2023-05-25T10:55:31.427Z,41.80
2023-05-25T10:56:34.020Z,41.90
2023-05-25T10:57:36.416Z,42.10
2023-05-25T10:58:46.377Z,42.10
2023-05-25T10:59:50.657Z,42.20
2023-05-25T11:00:59.761Z,42.20
2023-05-25T11:02:09.273Z,42.10
2023-05-25T11:03:12.062Z,42.30
2023-05-25T11:04:17.666Z,42.40
2023-05-25T11:05:33.238Z,42.40
2023-05-25T11:06:40.282Z,42.50
2023-05-25T11:07:54.656Z,42.30
2023-05-25T11:09:04.447Z,42.10
2023-05-25T11:10:07.359Z,42.10
2023-05-25T11:11:09.680Z,42.10
2023-05-25T11:12:20.904Z,41.90
2023-05-25T11:13:34.134Z,42.00
2023-05-25T11:14:42.385Z,42.20
2023-05-25T11:15:45.119Z,42.10
2023-05-25T11:17:22.833Z,42.10
2023-05-25T11:18:37.931Z,42.00
2023-05-25T11:19:51.713Z,41.80
2023-05-25T11:21:15.841Z,42.10
2023-05-25T11:22:33.058Z,41.60
2023-05-25T11:23:39.662Z,41.50
2023-05-25T11:24:45.531Z,41.60
2023-05-25T11:25:48.379Z,41.70
2023-05-25T11:27:06.034Z,41.10
2023-05-25T11:28:12.045Z,40.60
2023-05-25T11:29:16.407Z,40.50
2023-05-25T11:30:19.497Z,41.10
2023-05-25T11:31:36.396Z,41.10
2023-05-25T11:32:50.601Z,41.20
2023-05-25T11:33:58.208Z,40.90
2023-05-25T11:35:00.597Z,41.30
2023-05-25T11:36:03.969Z,41.80
2023-05-25T11:37:06.396Z,41.80
2023-05-25T11:38:08.847Z,41.40
2023-05-25T11:39:21.921Z,41.00
2023-05-25T11:40:25.200Z,41.20
2023-05-25T11:41:29.499Z,41.40
2023-05-25T11:42:32.544Z,41.30
2023-05-25T11:43:37.506Z,41.20
2023-05-25T11:44:39.887Z,41.30
2023-05-25T11:45:42.285Z,41.60
2023-05-25T11:46:48.488Z,41.40
2023-05-25T11:47:52.036Z,41.30
2023-05-25T11:48:55.339Z,41.50
2023-05-25T11:49:58.619Z,41.00
2023-05-25T11:51:05.486Z,40.80
2023-05-25T11:52:09.059Z,41.20
2023-05-25T11:53:11.573Z,40.80
2023-05-25T11:54:24.862Z,40.60
2023-05-25T11:55:27.413Z,40.40
2023-05-25T11:56:35.746Z,40.60
2023-05-25T11:57:40.227Z,40.50
2023-05-25T11:58:47.199Z,40.80
2023-05-25T11:59:57.887Z,40.90
2023-05-25T12:01:20.804Z,41.20
2023-05-25T12:02:24.038Z,41.10
2023-05-25T12:03:32.437Z,40.90
2023-05-25T12:04:35.209Z,40.70
2023-05-25T12:05:39.406Z,40.60
2023-05-25T12:06:42.070Z,41.60
2023-05-25T12:07:46.741Z,41.80
2023-05-25T12:08:49.503Z,41.80
2023-05-25T12:09:52.641Z,40.80
2023-05-25T12:10:55.640Z,40.50
2023-05-25T12:11:58.807Z,40.50
2023-05-25T12:13:02.264Z,40.70
2023-05-25T12:14:06.951Z,40.70
2023-05-25T12:15:23.208Z,41.00
2023-05-25T12:16:25.935Z,41.40
2023-05-25T12:17:28.928Z,41.30
2023-05-25T12:18:31.917Z,41.20
2023-05-25T12:19:34.548Z,41.60
2023-05-25T12:20:38.576Z,41.60
2023-05-25T12:21:41.869Z,41.80
2023-05-25T12:22:46.453Z,41.90
2023-05-25T12:23:50.823Z,41.80
2023-05-25T12:24:53.930Z,41.50
2023-05-25T12:26:16.371Z,41.60
2023-05-25T12:27:20.288Z,41.60
2023-05-25T12:28:23.705Z,41.70
2023-05-25T12:29:26.479Z,41.70
2023-05-25T12:30:29.875Z,41.60
2023-05-25T12:31:36.951Z,41.50
2023-05-25T12:33:01.973Z,41.50
2023-05-25T12:34:16.699Z,41.80
2023-05-25T12:35:19.690Z,42.00
2023-05-25T12:36:43.031Z,42.10
2023-05-25T12:37:46.651Z,42.00
2023-05-25T12:38:59.031Z,42.10
2023-05-25T12:40:01.669Z,42.20
2023-05-25T12:41:08.755Z,42.30
2023-05-25T12:42:15.513Z,42.10
2023-05-25T12:43:17.974Z,42.20
2023-05-25T12:44:27.599Z,41.90
2023-05-25T12:45:30.154Z,42.10
2023-05-25T12:46:32.628Z,42.30
2023-05-25T12:47:35.168Z,42.00
2023-05-25T12:48:38.633Z,41.50
2023-05-25T12:49:43.312Z,41.60
2023-05-25T12:51:01.160Z,41.90
2023-05-25T12:52:05.064Z,41.90
2023-05-25T12:53:07.670Z,41.90
2023-05-25T12:54:10.029Z,41.90
2023-05-25T12:55:29.512Z,42.00
2023-05-25T12:56:31.851Z,42.10
2023-05-25T12:57:36.206Z,41.40
2023-05-25T12:58:40.656Z,41.40
2023-05-25T12:59:47.497Z,41.70
2023-05-25T13:00:50.464Z,41.70
2023-05-25T13:01:52.874Z,41.60
2023-05-25T13:02:55.486Z,41.60
2023-05-25T13:03:57.946Z,41.60
2023-05-25T13:05:00.945Z,41.60
2023-05-25T13:06:03.755Z,41.60
2023-05-25T13:07:08.868Z,41.90
2023-05-25T13:08:11.263Z,42.10
2023-05-25T13:09:14.098Z,42.10
2023-05-25T13:10:20.313Z,42.10
2023-05-25T13:11:22.999Z,42.10
2023-05-25T13:12:25.489Z,41.80
2023-05-25T13:13:30.781Z,41.40
2023-05-25T13:14:33.146Z,41.40
2023-05-25T13:15:35.498Z,41.50
2023-05-25T13:16:40.965Z,41.60
2023-05-25T13:17:44.218Z,41.50
2023-05-25T13:18:46.603Z,41.30
2023-05-25T13:19:49.294Z,41.50
2023-05-25T13:20:55.215Z,41.50
2023-05-25T13:21:59.087Z,41.60
2023-05-25T13:23:03.078Z,41.90
2023-05-25T13:24:05.649Z,41.60
2023-05-25T13:25:10.301Z,41.70
2023-05-25T13:26:13.235Z,41.90
2023-05-25T13:27:15.619Z,42.10
2023-05-25T13:28:17.978Z,42.10
2023-05-25T13:29:20.492Z,42.10
2023-05-25T13:30:23.499Z,42.30
2023-05-25T13:31:26.890Z,42.30
2023-05-25T13:32:31.440Z,42.10
2023-05-25T13:33:36.357Z,42.20
2023-05-25T13:34:38.740Z,42.30
2023-05-25T13:35:58.753Z,41.80
2023-05-25T13:37:01.416Z,41.60
2023-05-25T13:38:04.054Z,42.00
2023-05-25T13:39:07.465Z,42.10
2023-05-25T13:40:11.238Z,42.10
2023-05-25T13:41:14.715Z,42.10
2023-05-25T13:42:17.737Z,42.30
2023-05-25T13:43:20.153Z,42.30
2023-05-25T13:44:22.573Z,42.30
2023-05-25T13:45:24.866Z,42.30
2023-05-25T13:46:34.833Z,42.30
2023-05-25T13:47:37.949Z,42.30
2023-05-25T13:48:40.770Z,42.30
2023-05-25T13:49:43.667Z,42.30
2023-05-25T13:50:47.734Z,42.40
2023-05-25T13:51:50.282Z,42.30
2023-05-25T13:52:54.066Z,42.40
2023-05-25T13:53:56.389Z,42.40
2023-05-25T13:54:59.414Z,42.40
2023-05-25T13:56:02.462Z,42.50